createdAt,value
2022-10-22T00:00:09.931Z,81.27
2022-10-22T00:02:56.903Z,81.23
2022-10-22T00:05:23.660Z,80.82
2022-10-22T00:07:50.577Z,81.45
2022-10-22T00:10:19.007Z,81.10
2022-10-22T00:12:46.079Z,81.92
2022-10-22T00:15:12.980Z,82.27
2022-10-22T00:17:40.119Z,81.18
2022-10-22T00:20:07.675Z,81.96
2022-10-22T00:22:34.619Z,81.21
2022-10-22T00:25:01.407Z,81.20
2022-10-22T00:27:28.423Z,81.60
2022-10-22T00:29:55.129Z,81.21
2022-10-22T00:32:22.067Z,82.38
2022-10-22T00:34:48.923Z,82.50
2022-10-22T00:37:15.913Z,81.90
2022-10-22T00:39:42.659Z,82.49
2022-10-22T00:42:23.662Z,83.36
2022-10-22T00:45:12.089Z,82.93
2022-10-22T00:48:09.915Z,82.91
2022-10-22T00:50:44.922Z,82.50
2022-10-22T00:53:16.624Z,82.82
2022-10-22T00:55:46.511Z,83.21
2022-10-22T00:58:14.119Z,82.40
2022-10-22T01:00:41.118Z,82.64
2022-10-22T01:03:08.550Z,82.38
2022-10-22T01:05:43.831Z,82.28
2022-10-22T01:08:25.379Z,81.58
2022-10-22T01:11:20.960Z,82.01
2022-10-22T01:14:24.337Z,82.18
2022-10-22T01:17:09.757Z,82.82
2022-10-22T01:20:14.082Z,83.22
2022-10-22T01:22:54.861Z,83.83
2022-10-22T01:25:29.948Z,83.66
2022-10-22T01:28:23.710Z,84.07
2022-10-22T01:30:54.507Z,83.76
2022-10-22T01:33:23.961Z,84.91
2022-10-22T01:35:51.932Z,85.46
2022-10-22T01:38:21.756Z,85.85
2022-10-22T01:40:50.456Z,86.01
2022-10-22T01:43:17.219Z,85.55
2022-10-22T01:45:54.109Z,85.59
2022-10-22T01:48:48.555Z,85.23
2022-10-22T01:51:30.564Z,85.38
2022-10-22T01:54:09.421Z,85.31
2022-10-22T01:56:42.312Z,84.96
2022-10-22T01:59:33.076Z,85.29
2022-10-22T02:02:02.591Z,86.23
2022-10-22T02:04:59.008Z,86.54
2022-10-22T02:07:31.714Z,85.72
2022-10-22T02:10:01.287Z,86.56
2022-10-22T02:12:33.203Z,86.96
2022-10-22T02:15:02.276Z,87.49
2022-10-22T02:17:34.984Z,87.67
2022-10-22T02:20:19.838Z,88.86
2022-10-22T02:22:47.353Z,89.05
2022-10-22T02:25:15.788Z,90.05
2022-10-22T02:27:51.747Z,90.41
2022-10-22T02:30:21.361Z,88.96
2022-10-22T02:33:01.712Z,90.01
2022-10-22T02:35:29.779Z,91.95
2022-10-22T02:37:58.540Z,92.08
2022-10-22T02:40:26.376Z,91.43
2022-10-22T02:42:53.412Z,92.58
2022-10-22T02:45:21.516Z,91.96
2022-10-22T02:47:48.462Z,92.11
2022-10-22T02:50:15.315Z,91.99
2022-10-22T02:52:42.526Z,92.63
2022-10-22T02:55:09.736Z,92.77
2022-10-22T02:57:36.765Z,93.31
2022-10-22T03:00:09.034Z,94.42
2022-10-22T03:02:35.966Z,94.15
2022-10-22T03:05:03.343Z,94.95
2022-10-22T03:07:30.271Z,92.66
2022-10-22T03:09:57.001Z,92.36
2022-10-22T03:12:23.919Z,93.33
2022-10-22T03:14:50.837Z,94.00
2022-10-22T03:17:18.934Z,95.00
2022-10-22T03:19:45.698Z,96.19
2022-10-22T03:22:20.012Z,95.75
2022-10-22T03:24:49.136Z,96.32
2022-10-22T03:27:18.382Z,96.12
2022-10-22T03:29:46.925Z,96.19
2022-10-22T03:32:13.867Z,97.46
2022-10-22T03:34:40.615Z,97.56
2022-10-22T03:37:07.680Z,97.94
2022-10-22T03:39:36.272Z,98.09
2022-10-22T03:42:05.345Z,98.15
2022-10-22T03:44:33.184Z,98.67
2022-10-22T03:47:02.568Z,99.35
2022-10-22T03:49:29.756Z,99.61
2022-10-22T03:51:56.749Z,100.00
2022-10-22T03:54:23.498Z,99.72
2022-10-22T03:56:50.414Z,99.50
2022-10-22T03:59:17.133Z,99.05
2022-10-22T04:01:44.079Z,100.00
2022-10-22T04:04:10.783Z,99.70
2022-10-22T04:06:37.782Z,100.00
2022-10-22T04:09:04.829Z,99.49
2022-10-22T04:11:31.845Z,98.53
2022-10-22T04:13:58.657Z,100.00
2022-10-22T04:16:30.899Z,99.82
2022-10-22T04:18:57.667Z,99.69
2022-10-22T04:21:25.027Z,100.00
2022-10-22T04:23:53.264Z,100.00
2022-10-22T04:26:21.302Z,99.53
2022-10-22T04:28:49.987Z,99.06
2022-10-22T04:31:20.168Z,99.82
2022-10-22T04:33:47.111Z,100.00
2022-10-22T04:36:17.658Z,100.00
2022-10-22T04:38:46.821Z,100.00
2022-10-22T04:41:15.297Z,100.00
2022-10-22T04:43:42.872Z,100.00
2022-10-22T04:46:11.078Z,100.00
2022-10-22T04:48:39.621Z,100.00
2022-10-22T04:51:07.954Z,100.00
2022-10-22T04:53:38.098Z,100.00
2022-10-22T04:56:19.888Z,100.00
2022-10-22T04:58:48.862Z,100.00
2022-10-22T05:01:21.418Z,100.00
2022-10-22T05:03:50.069Z,100.00
2022-10-22T05:06:17.950Z,100.00
2022-10-22T05:08:44.873Z,100.00
2022-10-22T05:11:17.954Z,100.00
2022-10-22T05:13:45.388Z,100.00
2022-10-22T05:16:13.232Z,100.00
2022-10-22T05:18:42.625Z,100.00
2022-10-22T05:21:14.548Z,100.00
2022-10-22T05:23:42.113Z,100.00
2022-10-22T05:26:11.582Z,100.00
2022-10-22T05:28:39.123Z,100.00
2022-10-22T05:31:08.183Z,100.00
2022-10-22T05:33:35.046Z,100.00
2022-10-22T05:36:04.062Z,100.00
2022-10-22T05:38:32.493Z,100.00
2022-10-22T05:41:05.180Z,100.00
2022-10-22T05:43:32.604Z,100.00
2022-10-22T05:46:04.562Z,100.00
2022-10-22T05:51:13.098Z,100.00
2022-10-22T05:53:42.227Z,100.00
2022-10-22T05:56:15.734Z,100.00
2022-10-22T05:58:45.871Z,100.00
2022-10-22T06:01:16.308Z,100.00
2022-10-22T06:03:44.224Z,100.00
2022-10-22T06:06:27.071Z,100.00
2022-10-22T06:08:55.358Z,100.00
2022-10-22T06:11:23.954Z,100.00
2022-10-22T06:13:51.820Z,100.00
2022-10-22T06:16:18.967Z,100.00
2022-10-22T06:18:45.860Z,100.00
2022-10-22T06:21:16.076Z,100.00
2022-10-22T06:23:43.818Z,100.00
2022-10-22T06:26:13.903Z,100.00
2022-10-22T06:28:40.848Z,100.00
2022-10-22T06:31:07.807Z,100.00
2022-10-22T06:33:37.184Z,100.00
2022-10-22T06:36:18.971Z,100.00
2022-10-22T06:38:45.915Z,100.00
2022-10-22T06:41:15.343Z,100.00
2022-10-22T06:43:49.591Z,100.00
2022-10-22T06:46:20.166Z,98.41
2022-10-22T06:49:05.823Z,97.35
2022-10-22T06:51:32.879Z,96.57
2022-10-22T06:53:59.638Z,93.38
2022-10-22T06:56:29.008Z,92.86
2022-10-22T06:58:57.402Z,93.10
2022-10-22T07:01:27.272Z,92.08
2022-10-22T07:03:54.692Z,90.97
2022-10-22T07:06:23.026Z,89.92
2022-10-22T07:08:50.136Z,90.71
2022-10-22T07:11:24.869Z,90.44
2022-10-22T07:13:53.795Z,89.02
2022-10-22T07:16:20.943Z,89.51
2022-10-22T07:18:48.431Z,89.42
2022-10-22T07:21:17.919Z,88.87
2022-10-22T07:23:45.364Z,87.05
2022-10-22T07:26:15.586Z,86.91
2022-10-22T07:28:42.954Z,86.31
2022-10-22T07:31:12.307Z,86.96
2022-10-22T07:34:22.319Z,86.04
2022-10-22T07:37:14.101Z,84.95
2022-10-22T07:40:06.335Z,84.15
2022-10-22T07:42:48.029Z,86.14
2022-10-22T07:45:15.064Z,81.71
2022-10-22T07:47:42.107Z,80.07
2022-10-22T07:50:09.854Z,79.40
2022-10-22T07:52:36.573Z,81.00
2022-10-22T07:55:04.143Z,77.57
2022-10-22T07:57:31.774Z,76.93
2022-10-22T07:59:59.219Z,75.48
2022-10-22T08:02:26.076Z,75.30
2022-10-22T08:04:53.020Z,73.95
2022-10-22T08:07:19.813Z,70.03
2022-10-22T08:09:46.793Z,70.19
2022-10-22T08:12:13.574Z,70.58
2022-10-22T08:14:40.569Z,69.85
2022-10-22T08:17:07.316Z,67.41
2022-10-22T08:19:35.419Z,66.20
2022-10-22T08:22:02.743Z,64.40
2022-10-22T08:24:29.792Z,63.52
2022-10-22T08:26:56.577Z,62.21
2022-10-22T08:29:24.595Z,61.72
2022-10-22T08:31:51.374Z,63.57
2022-10-22T08:34:18.299Z,63.30
2022-10-22T08:36:45.073Z,64.00
2022-10-22T08:39:12.199Z,66.55
2022-10-22T08:42:00.128Z,65.11
2022-10-22T08:44:29.957Z,64.39
2022-10-22T08:47:06.111Z,65.74
2022-10-22T08:49:38.484Z,65.85
2022-10-22T08:52:15.841Z,64.40
2022-10-22T08:54:56.267Z,65.60
2022-10-22T08:57:47.617Z,64.07
2022-10-22T09:00:24.068Z,66.39
2022-10-22T09:03:21.951Z,65.44
2022-10-22T09:06:04.051Z,65.47
2022-10-22T09:08:31.004Z,65.09
2022-10-22T09:11:17.677Z,66.73
2022-10-22T09:13:46.208Z,66.16
2022-10-22T09:16:38.682Z,66.39
2022-10-22T09:19:11.302Z,66.10
2022-10-22T09:22:16.039Z,67.05
2022-10-22T09:24:48.007Z,65.75
2022-10-22T09:27:27.595Z,66.92
2022-10-22T09:29:54.367Z,66.31
2022-10-22T09:32:21.391Z,67.20
2022-10-22T09:34:49.357Z,66.59
2022-10-22T09:37:18.979Z,67.22
2022-10-22T09:39:50.903Z,66.57
2022-10-22T09:42:20.519Z,67.05
2022-10-22T09:44:58.374Z,66.78
2022-10-22T09:48:01.838Z,65.58
2022-10-22T09:50:28.742Z,67.23
2022-10-22T09:53:12.247Z,66.77
2022-10-22T09:55:40.472Z,67.79
2022-10-22T09:58:14.183Z,66.78
2022-10-22T10:00:43.727Z,67.88
2022-10-22T10:03:21.532Z,70.46
2022-10-22T10:05:51.588Z,68.00
2022-10-22T10:08:19.288Z,68.39
2022-10-22T10:10:50.273Z,67.67
2022-10-22T10:13:47.917Z,66.44
2022-10-22T10:16:31.084Z,66.59
2022-10-22T10:19:35.165Z,66.23
2022-10-22T10:22:04.427Z,66.29
2022-10-22T10:24:43.332Z,65.10
2022-10-22T10:27:20.339Z,65.06
2022-10-22T10:30:02.880Z,65.43
2022-10-22T10:32:57.635Z,66.64
2022-10-22T10:35:55.136Z,67.53
2022-10-22T10:38:53.155Z,66.15
2022-10-22T10:41:25.147Z,67.80
2022-10-22T10:44:10.415Z,67.50
2022-10-22T10:46:54.498Z,66.94
2022-10-22T10:49:26.750Z,65.92
2022-10-22T10:51:56.816Z,65.42
2022-10-22T10:54:51.077Z,64.97
2022-10-22T10:57:45.849Z,65.08
2022-10-22T11:00:16.617Z,64.76
2022-10-22T11:03:13.243Z,64.96
2022-10-22T11:06:00.194Z,64.78
2022-10-22T11:08:30.547Z,64.24
2022-10-22T11:13:57.788Z,63.22
2022-10-22T11:16:37.395Z,63.88
2022-10-22T11:19:15.521Z,65.37
2022-10-22T11:21:59.522Z,64.86
2022-10-22T11:24:53.867Z,65.45
2022-10-22T11:27:50.420Z,65.42
2022-10-22T11:30:23.315Z,65.61
2022-10-22T11:32:57.683Z,66.35
2022-10-22T11:35:28.842Z,68.98
2022-10-22T11:37:57.114Z,65.76
2022-10-22T11:40:29.788Z,66.11
2022-10-22T11:43:06.050Z,66.98
2022-10-22T11:45:43.153Z,67.13
2022-10-22T11:48:09.894Z,65.85
2022-10-22T11:50:56.712Z,65.61
2022-10-22T11:53:26.265Z,64.80
2022-10-22T11:55:56.263Z,64.95
2022-10-22T11:58:29.041Z,65.13
2022-10-22T12:00:55.965Z,65.95
2022-10-22T12:03:28.495Z,67.63
2022-10-22T12:06:15.513Z,65.62
2022-10-22T12:08:46.096Z,65.52
2022-10-22T12:11:33.933Z,65.28
2022-10-22T12:14:28.074Z,67.48
2022-10-22T12:17:03.239Z,68.67
2022-10-22T12:19:39.338Z,66.58
2022-10-22T12:22:06.233Z,67.24
2022-10-22T12:24:37.722Z,68.74
2022-10-22T12:27:04.685Z,70.42
2022-10-22T12:29:32.914Z,68.60
2022-10-22T12:32:04.392Z,67.46
2022-10-22T12:34:31.163Z,67.74
2022-10-22T12:36:58.067Z,68.78
2022-10-22T12:39:27.219Z,69.71
2022-10-22T12:41:54.897Z,71.15
2022-10-22T12:44:21.726Z,72.09
2022-10-22T12:46:53.094Z,75.97
2022-10-22T12:49:28.589Z,74.95
2022-10-22T12:51:55.500Z,71.22
2022-10-22T12:54:28.945Z,69.61
2022-10-22T12:56:56.320Z,69.92
2022-10-22T12:59:34.833Z,71.43
2022-10-22T13:02:02.689Z,72.80
2022-10-22T13:04:35.626Z,71.45
2022-10-22T13:07:15.975Z,70.65
2022-10-22T13:09:56.745Z,71.90
2022-10-22T13:12:28.641Z,71.23
2022-10-22T13:14:55.474Z,71.44
2022-10-22T13:17:42.239Z,71.27
2022-10-22T13:20:27.350Z,70.94
2022-10-22T13:23:00.564Z,72.25
2022-10-22T13:25:30.556Z,72.52
2022-10-22T13:28:06.803Z,71.10
2022-10-22T13:30:36.517Z,71.27
2022-10-22T13:33:06.737Z,72.27
2022-10-22T13:35:38.247Z,72.26
2022-10-22T13:38:19.569Z,73.59
2022-10-22T13:40:46.768Z,74.26
2022-10-22T13:43:14.207Z,73.62
2022-10-22T13:45:41.070Z,72.72
2022-10-22T13:48:13.857Z,73.23
2022-10-22T13:50:41.142Z,72.88
2022-10-22T13:53:18.859Z,72.33
2022-10-22T13:55:46.204Z,72.74
2022-10-22T13:58:31.127Z,71.99
2022-10-22T14:00:59.881Z,72.03
2022-10-22T14:03:33.366Z,71.98
2022-10-22T14:06:00.894Z,72.41
2022-10-22T14:08:28.280Z,72.41
2022-10-22T14:10:55.453Z,72.86
2022-10-22T14:13:22.633Z,74.17
2022-10-22T14:15:50.766Z,73.49
2022-10-22T14:18:26.653Z,73.50
2022-10-22T14:20:56.950Z,73.76
2022-10-22T14:23:27.419Z,73.53
2022-10-22T14:25:54.612Z,73.52
2022-10-22T14:28:21.735Z,73.87
2022-10-22T14:30:49.294Z,74.07
2022-10-22T14:33:28.850Z,74.03
2022-10-22T14:35:59.656Z,73.75
2022-10-22T14:38:26.626Z,74.02
2022-10-22T14:40:53.715Z,75.32
2022-10-22T14:43:23.592Z,75.65
2022-10-22T14:45:51.056Z,75.85
2022-10-22T14:50:47.959Z,76.60
2022-10-22T14:53:16.704Z,76.41
2022-10-22T14:55:44.487Z,76.96
2022-10-22T14:58:12.351Z,76.84
2022-10-22T15:00:41.657Z,76.85
2022-10-22T15:03:09.338Z,78.04
2022-10-22T15:05:42.123Z,79.00
2022-10-22T15:08:09.075Z,79.04
2022-10-22T15:10:35.845Z,80.32
2022-10-22T15:13:02.826Z,80.46
2022-10-22T15:15:34.022Z,81.20
2022-10-22T15:18:02.489Z,81.67
2022-10-22T15:20:29.315Z,82.83
2022-10-22T15:22:56.505Z,82.95
2022-10-22T15:25:23.216Z,83.11
2022-10-22T15:27:51.769Z,84.01
2022-10-22T15:30:20.845Z,84.95
2022-10-22T15:32:47.804Z,86.32
2022-10-22T15:35:14.554Z,87.41
2022-10-22T15:37:41.505Z,88.31
2022-10-22T15:40:08.804Z,88.79
2022-10-22T15:42:35.799Z,88.83
2022-10-22T15:45:02.584Z,89.83
2022-10-22T15:47:31.183Z,89.35
2022-10-22T15:49:58.788Z,90.24
2022-10-22T15:52:25.736Z,91.57
2022-10-22T15:54:52.491Z,92.89
2022-10-22T15:57:19.438Z,94.00
2022-10-22T15:59:47.042Z,96.29
2022-10-22T16:02:15.511Z,98.17
2022-10-22T16:04:42.598Z,98.86
2022-10-22T16:07:09.558Z,100.00
2022-10-22T16:09:36.328Z,100.00
2022-10-22T16:12:03.276Z,100.00
2022-10-22T16:14:30.368Z,100.00
2022-10-22T16:16:57.556Z,100.00
2022-10-22T16:19:24.675Z,100.00
2022-10-22T16:21:54.017Z,100.00
2022-10-22T16:24:21.301Z,100.00
2022-10-22T16:26:48.673Z,100.00
2022-10-22T16:29:16.115Z,100.00
2022-10-22T16:31:44.033Z,100.00
2022-10-22T16:34:11.636Z,100.00
2022-10-22T16:36:38.914Z,100.00
2022-10-22T16:39:06.732Z,100.00
2022-10-22T16:41:36.913Z,100.00
2022-10-22T16:44:07.720Z,100.00
2022-10-22T16:46:38.429Z,100.00
2022-10-22T16:49:06.496Z,100.00
2022-10-22T16:51:34.351Z,100.00
2022-10-22T16:54:01.331Z,100.00
2022-10-22T16:56:28.429Z,100.00
2022-10-22T16:58:57.067Z,100.00
2022-10-22T17:01:26.931Z,100.00
2022-10-22T17:03:59.551Z,100.00
2022-10-22T17:06:27.089Z,100.00
2022-10-22T17:08:54.308Z,100.00
2022-10-22T17:11:23.578Z,100.00
2022-10-22T17:13:53.515Z,100.00
2022-10-22T17:16:23.127Z,100.00
2022-10-22T17:18:50.201Z,100.00
2022-10-22T17:21:19.056Z,100.00
2022-10-22T17:23:47.920Z,100.00
2022-10-22T17:26:19.631Z,100.00
2022-10-22T17:28:47.062Z,100.00
2022-10-22T17:31:28.107Z,100.00
2022-10-22T17:33:56.518Z,100.00
2022-10-22T17:36:24.866Z,100.00
2022-10-22T17:38:54.467Z,100.00
2022-10-22T17:41:24.710Z,100.00
2022-10-22T17:43:51.680Z,100.00
2022-10-22T17:46:27.326Z,100.00
2022-10-22T17:48:59.822Z,100.00
2022-10-22T17:51:29.588Z,100.00
2022-10-22T17:53:56.992Z,100.00
2022-10-22T17:56:27.943Z,100.00
2022-10-22T17:58:55.966Z,100.00
2022-10-22T18:01:25.501Z,100.00
2022-10-22T18:03:54.093Z,100.00
2022-10-22T18:06:22.166Z,100.00
2022-10-22T18:08:49.508Z,100.00
2022-10-22T18:11:20.724Z,100.00
2022-10-22T18:13:56.071Z,100.00
2022-10-22T18:16:24.813Z,100.00
2022-10-22T18:18:54.596Z,100.00
2022-10-22T18:21:24.031Z,100.00
2022-10-22T18:23:51.153Z,100.00
2022-10-22T18:26:20.346Z,100.00
2022-10-22T18:28:49.705Z,100.00
2022-10-22T18:31:22.502Z,100.00
2022-10-22T18:33:50.029Z,100.00
2022-10-22T18:36:20.894Z,100.00
2022-10-22T18:38:56.332Z,100.00
2022-10-22T18:41:24.258Z,100.00
2022-10-22T18:43:59.255Z,100.00
2022-10-22T18:46:28.223Z,100.00
2022-10-22T18:48:57.567Z,100.00
2022-10-22T18:51:26.623Z,100.00
2022-10-22T18:54:05.877Z,100.00
2022-10-22T18:56:43.885Z,100.00
2022-10-22T18:59:21.987Z,100.00
2022-10-22T19:01:49.339Z,100.00
2022-10-22T19:04:16.288Z,100.00
2022-10-22T19:06:45.697Z,100.00
2022-10-22T19:09:14.715Z,100.00
2022-10-22T19:11:43.585Z,100.00
2022-10-22T19:14:10.561Z,100.00
2022-10-22T19:16:37.668Z,100.00
2022-10-22T19:19:07.045Z,100.00
2022-10-22T19:21:35.277Z,100.00
2022-10-22T19:24:02.892Z,100.00
2022-10-22T19:26:34.136Z,100.00
2022-10-22T19:29:02.868Z,100.00
2022-10-22T19:31:31.232Z,100.00
2022-10-22T19:34:00.008Z,100.00
2022-10-22T19:36:28.761Z,100.00
2022-10-22T19:38:56.304Z,100.00
2022-10-22T19:41:26.078Z,100.00
2022-10-22T19:43:54.415Z,100.00
2022-10-22T19:46:23.077Z,100.00
2022-10-22T19:48:53.214Z,100.00
2022-10-22T19:51:22.693Z,100.00
2022-10-22T19:53:49.989Z,100.00
2022-10-22T19:56:19.568Z,100.00
2022-10-22T19:58:46.733Z,100.00
2022-10-22T20:01:16.166Z,100.00
2022-10-22T20:03:43.860Z,100.00
2022-10-22T20:06:12.346Z,100.00
2022-10-22T20:08:39.641Z,100.00
2022-10-22T20:11:10.840Z,100.00
2022-10-22T20:16:10.162Z,100.00
2022-10-22T20:18:38.528Z,100.00
2022-10-22T20:21:11.927Z,100.00
2022-10-22T20:23:38.934Z,100.00
2022-10-22T20:26:06.246Z,100.00
2022-10-22T20:28:33.032Z,100.00
2022-10-22T20:31:00.077Z,100.00
2022-10-22T20:33:26.875Z,100.00
2022-10-22T20:36:01.413Z,100.00
2022-10-22T20:38:28.967Z,100.00
2022-10-22T20:41:22.841Z,100.00
2022-10-22T20:43:51.363Z,100.00
2022-10-22T20:46:23.504Z,100.00
2022-10-22T20:48:52.244Z,100.00
2022-10-22T20:51:19.737Z,100.00
2022-10-22T20:53:46.712Z,100.00
2022-10-22T20:56:14.355Z,100.00
2022-10-22T20:58:47.615Z,100.00
2022-10-22T21:01:22.171Z,100.00
2022-10-22T21:03:50.728Z,100.00
2022-10-22T21:06:21.049Z,100.00
2022-10-22T21:08:47.896Z,100.00
2022-10-22T21:11:14.874Z,100.00
2022-10-22T21:13:41.633Z,100.00
2022-10-22T21:16:12.596Z,100.00
2022-10-22T21:18:39.382Z,100.00
2022-10-22T21:21:07.719Z,100.00
2022-10-22T21:23:35.872Z,100.00
2022-10-22T21:26:03.206Z,100.00
2022-10-22T21:28:34.420Z,100.00
2022-10-22T21:31:06.114Z,100.00
2022-10-22T21:33:37.246Z,100.00
2022-10-22T21:36:06.776Z,100.00
2022-10-22T21:38:34.579Z,100.00
2022-10-22T21:41:09.199Z,100.00
2022-10-22T21:43:40.887Z,100.00
2022-10-22T21:46:10.790Z,100.00
2022-10-22T21:48:38.695Z,100.00
2022-10-22T21:51:08.884Z,100.00
2022-10-22T21:53:36.347Z,100.00
2022-10-22T21:56:04.301Z,100.00
2022-10-22T21:58:31.295Z,100.00
2022-10-22T22:00:58.565Z,100.00
2022-10-22T22:03:25.371Z,100.00
2022-10-22T22:05:58.720Z,100.00
2022-10-22T22:08:25.945Z,100.00
2022-10-22T22:10:53.753Z,100.00
2022-10-22T22:13:24.899Z,100.00
2022-10-22T22:15:52.587Z,100.00
2022-10-22T22:18:20.224Z,100.00
2022-10-22T22:20:47.188Z,100.00
2022-10-22T22:23:13.936Z,100.00
2022-10-22T22:25:40.891Z,100.00
2022-10-22T22:28:07.660Z,100.00
2022-10-22T22:30:34.610Z,100.00
2022-10-22T22:33:01.345Z,100.00
2022-10-22T22:35:28.889Z,100.00
2022-10-22T22:37:55.763Z,100.00
2022-10-22T22:40:23.456Z,100.00
2022-10-22T22:42:50.224Z,100.00
2022-10-22T22:45:17.263Z,100.00
2022-10-22T22:47:44.230Z,100.00
2022-10-22T22:50:11.471Z,100.00
2022-10-22T22:52:38.321Z,100.00
2022-10-22T22:55:06.043Z,100.00
2022-10-22T22:57:32.820Z,100.00
2022-10-22T22:59:59.759Z,100.00
2022-10-22T23:02:26.559Z,100.00
2022-10-22T23:04:53.480Z,100.00
2022-10-22T23:07:20.235Z,100.00
2022-10-22T23:09:47.268Z,100.00
2022-10-22T23:12:14.189Z,100.00
2022-10-22T23:14:41.150Z,100.00
2022-10-22T23:17:07.907Z,100.00
2022-10-22T23:19:34.868Z,100.00
2022-10-22T23:22:01.676Z,100.00
2022-10-22T23:24:30.044Z,100.00
2022-10-22T23:27:00.995Z,100.00
2022-10-22T23:29:30.202Z,100.00
2022-10-22T23:32:00.195Z,100.00
2022-10-22T23:34:27.977Z,100.00
2022-10-22T23:36:55.935Z,100.00
2022-10-22T23:39:25.122Z,100.00
2022-10-22T23:41:53.204Z,100.00
2022-10-22T23:44:21.794Z,100.00
2022-10-22T23:46:49.352Z,100.00
2022-10-22T23:49:17.075Z,100.00
2022-10-22T23:51:44.106Z,100.00
2022-10-22T23:54:13.886Z,100.00
2022-10-22T23:56:40.893Z,100.00
2022-10-22T23:59:08.913Z,100.00
